sensor_id;sensor_type;location;lat;lon;timestamp;temperature;humidity
11055;DHT22;5580;50.106;8.702;2022-09-09T00:00:38;20.00;99.90
11055;DHT22;5580;50.106;8.702;2022-09-09T00:03:10;20.00;99.90
11055;DHT22;5580;50.106;8.702;2022-09-09T00:05:44;20.00;99.90
11055;DHT22;5580;50.106;8.702;2022-09-09T00:08:19;20.00;99.90
11055;DHT22;5580;50.106;8.702;2022-09-09T00:10:52;20.00;99.90
11055;DHT22;5580;50.106;8.702;2022-09-09T00:13:28;20.00;99.90
11055;DHT22;5580;50.106;8.702;2022-09-09T00:21:16;20.00;99.90
11055;DHT22;5580;50.106;8.702;2022-09-09T00:23:55;20.00;99.90
11055;DHT22;5580;50.106;8.702;2022-09-09T00:26:32;20.00;99.90
11055;DHT22;5580;50.106;8.702;2022-09-09T00:29:16;19.90;99.90
11055;DHT22;5580;50.106;8.702;2022-09-09T00:31:44;19.90;99.90
11055;DHT22;5580;50.106;8.702;2022-09-09T00:36:39;19.80;99.90
11055;DHT22;5580;50.106;8.702;2022-09-09T00:39:05;19.80;99.90
11055;DHT22;5580;50.106;8.702;2022-09-09T00:41:57;19.80;99.90
11055;DHT22;5580;50.106;8.702;2022-09-09T00:44:37;19.70;99.90
11055;DHT22;5580;50.106;8.702;2022-09-09T00:49:50;19.70;99.90
11055;DHT22;5580;50.106;8.702;2022-09-09T00:55:19;19.70;99.90
11055;DHT22;5580;50.106;8.702;2022-09-09T00:57:49;19.70;99.90
11055;DHT22;5580;50.106;8.702;2022-09-09T01:03:21;19.70;99.90
11055;DHT22;5580;50.106;8.702;2022-09-09T01:16:59;19.60;99.90
11055;DHT22;5580;50.106;8.702;2022-09-09T01:28:14;19.40;99.90
11055;DHT22;5580;50.106;8.702;2022-09-09T01:30:42;19.40;99.90
11055;DHT22;5580;50.106;8.702;2022-09-09T01:33:13;19.40;99.90
11055;DHT22;5580;50.106;8.702;2022-09-09T01:35:42;19.40;99.90
11055;DHT22;5580;50.106;8.702;2022-09-09T01:38:10;19.40;99.90
11055;DHT22;5580;50.106;8.702;2022-09-09T01:40:36;19.40;99.90
11055;DHT22;5580;50.106;8.702;2022-09-09T01:43:02;19.40;99.90
11055;DHT22;5580;50.106;8.702;2022-09-09T01:45:29;19.30;99.90
11055;DHT22;5580;50.106;8.702;2022-09-09T01:47:56;19.30;99.90
11055;DHT22;5580;50.106;8.702;2022-09-09T01:50:22;19.20;99.90
11055;DHT22;5580;50.106;8.702;2022-09-09T01:52:51;19.20;99.90
11055;DHT22;5580;50.106;8.702;2022-09-09T01:55:29;19.20;99.90
11055;DHT22;5580;50.106;8.702;2022-09-09T02:00:24;19.20;99.90
11055;DHT22;5580;50.106;8.702;2022-09-09T02:05:38;19.20;99.90
11055;DHT22;5580;50.106;8.702;2022-09-09T02:13:13;19.10;99.90
11055;DHT22;5580;50.106;8.702;2022-09-09T02:16:12;19.10;99.90
11055;DHT22;5580;50.106;8.702;2022-09-09T02:21:13;19.00;99.90
11055;DHT22;5580;50.106;8.702;2022-09-09T02:23:41;19.10;99.90
11055;DHT22;5580;50.106;8.702;2022-09-09T02:26:09;19.10;99.90
11055;DHT22;5580;50.106;8.702;2022-09-09T02:28:36;19.10;99.90
11055;DHT22;5580;50.106;8.702;2022-09-09T02:31:02;19.10;99.90
11055;DHT22;5580;50.106;8.702;2022-09-09T02:33:33;19.20;99.90
11055;DHT22;5580;50.106;8.702;2022-09-09T02:36:01;19.10;99.90
11055;DHT22;5580;50.106;8.702;2022-09-09T02:38:33;19.10;99.90
11055;DHT22;5580;50.106;8.702;2022-09-09T02:41:00;19.10;99.90
11055;DHT22;5580;50.106;8.702;2022-09-09T02:43:31;19.10;99.90
11055;DHT22;5580;50.106;8.702;2022-09-09T02:48:54;19.10;99.90
11055;DHT22;5580;50.106;8.702;2022-09-09T02:56:43;19.10;99.90
11055;DHT22;5580;50.106;8.702;2022-09-09T02:59:11;19.10;99.90
11055;DHT22;5580;50.106;8.702;2022-09-09T03:01:37;19.10;99.90
11055;DHT22;5580;50.106;8.702;2022-09-09T03:04:05;19.10;99.90
11055;DHT22;5580;50.106;8.702;2022-09-09T03:06:31;19.10;99.90
11055;DHT22;5580;50.106;8.702;2022-09-09T03:08:56;19.10;99.90
11055;DHT22;5580;50.106;8.702;2022-09-09T03:11:22;19.10;99.90
11055;DHT22;5580;50.106;8.702;2022-09-09T03:13:48;19.10;99.90
11055;DHT22;5580;50.106;8.702;2022-09-09T03:16:14;19.20;99.90
11055;DHT22;5580;50.106;8.702;2022-09-09T03:18:40;19.10;99.90
11055;DHT22;5580;50.106;8.702;2022-09-09T03:21:06;19.10;99.90
11055;DHT22;5580;50.106;8.702;2022-09-09T03:23:32;19.10;99.90
11055;DHT22;5580;50.106;8.702;2022-09-09T03:25:57;19.10;99.90
11055;DHT22;5580;50.106;8.702;2022-09-09T03:28:24;19.10;99.90
11055;DHT22;5580;50.106;8.702;2022-09-09T03:30:59;19.10;99.90
11055;DHT22;5580;50.106;8.702;2022-09-09T03:33:25;19.10;99.90
11055;DHT22;5580;50.106;8.702;2022-09-09T03:35:50;19.10;99.90
11055;DHT22;5580;50.106;8.702;2022-09-09T03:38:16;19.10;99.90
11055;DHT22;5580;50.106;8.702;2022-09-09T03:40:53;19.00;99.90
11055;DHT22;5580;50.106;8.702;2022-09-09T03:43:23;19.00;99.90
11055;DHT22;5580;50.106;8.702;2022-09-09T03:45:49;19.00;99.90
11055;DHT22;5580;50.106;8.702;2022-09-09T03:48:16;19.00;99.90
11055;DHT22;5580;50.106;8.702;2022-09-09T03:50:49;19.00;99.90
11055;DHT22;5580;50.106;8.702;2022-09-09T03:53:16;19.00;99.90
11055;DHT22;5580;50.106;8.702;2022-09-09T03:55:49;19.00;99.90
11055;DHT22;5580;50.106;8.702;2022-09-09T03:58:16;18.90;99.90
11055;DHT22;5580;50.106;8.702;2022-09-09T04:00:52;18.90;99.90
11055;DHT22;5580;50.106;8.702;2022-09-09T04:03:18;18.90;99.90
11055;DHT22;5580;50.106;8.702;2022-09-09T04:05:43;18.90;99.90
11055;DHT22;5580;50.106;8.702;2022-09-09T04:08:09;18.90;99.90
11055;DHT22;5580;50.106;8.702;2022-09-09T04:10:35;18.90;99.90
11055;DHT22;5580;50.106;8.702;2022-09-09T04:13:04;18.90;99.90
11055;DHT22;5580;50.106;8.702;2022-09-09T04:15:30;18.90;99.90
11055;DHT22;5580;50.106;8.702;2022-09-09T04:17:56;18.90;99.90
11055;DHT22;5580;50.106;8.702;2022-09-09T04:20:22;18.90;99.90
11055;DHT22;5580;50.106;8.702;2022-09-09T04:22:49;18.90;99.90
11055;DHT22;5580;50.106;8.702;2022-09-09T04:25:14;18.90;99.90
11055;DHT22;5580;50.106;8.702;2022-09-09T04:27:40;18.90;99.90
11055;DHT22;5580;50.106;8.702;2022-09-09T04:30:06;18.90;99.90
11055;DHT22;5580;50.106;8.702;2022-09-09T04:32:33;18.90;99.90
11055;DHT22;5580;50.106;8.702;2022-09-09T04:34:59;18.80;99.90
11055;DHT22;5580;50.106;8.702;2022-09-09T04:37:25;18.80;99.90
11055;DHT22;5580;50.106;8.702;2022-09-09T04:39:50;18.80;99.90
11055;DHT22;5580;50.106;8.702;2022-09-09T04:42:16;18.70;99.90
11055;DHT22;5580;50.106;8.702;2022-09-09T04:44:44;18.70;99.90
11055;DHT22;5580;50.106;8.702;2022-09-09T04:47:10;18.70;99.90
11055;DHT22;5580;50.106;8.702;2022-09-09T04:49:36;18.70;99.90
11055;DHT22;5580;50.106;8.702;2022-09-09T04:52:02;18.70;99.90
11055;DHT22;5580;50.106;8.702;2022-09-09T04:54:29;18.70;99.90
11055;DHT22;5580;50.106;8.702;2022-09-09T04:56:54;18.70;99.90
11055;DHT22;5580;50.106;8.702;2022-09-09T04:59:20;18.60;99.90
11055;DHT22;5580;50.106;8.702;2022-09-09T05:01:47;18.60;99.90
11055;DHT22;5580;50.106;8.702;2022-09-09T05:04:13;18.60;99.90
11055;DHT22;5580;50.106;8.702;2022-09-09T05:06:40;18.60;99.90
11055;DHT22;5580;50.106;8.702;2022-09-09T05:09:07;18.60;99.90
11055;DHT22;5580;50.106;8.702;2022-09-09T05:11:33;18.70;99.90
11055;DHT22;5580;50.106;8.702;2022-09-09T05:14:01;18.70;99.90
11055;DHT22;5580;50.106;8.702;2022-09-09T05:16:27;18.80;99.90
11055;DHT22;5580;50.106;8.702;2022-09-09T05:18:52;18.80;99.90
11055;DHT22;5580;50.106;8.702;2022-09-09T05:21:20;18.80;99.90
11055;DHT22;5580;50.106;8.702;2022-09-09T05:23:46;18.80;99.90
11055;DHT22;5580;50.106;8.702;2022-09-09T05:26:15;18.80;99.90
11055;DHT22;5580;50.106;8.702;2022-09-09T05:28:41;18.80;99.90
11055;DHT22;5580;50.106;8.702;2022-09-09T05:31:09;18.70;99.90
11055;DHT22;5580;50.106;8.702;2022-09-09T05:33:36;18.80;99.90
11055;DHT22;5580;50.106;8.702;2022-09-09T05:36:07;18.70;99.90
11055;DHT22;5580;50.106;8.702;2022-09-09T05:38:33;18.70;99.90
11055;DHT22;5580;50.106;8.702;2022-09-09T05:41:00;18.70;99.90
11055;DHT22;5580;50.106;8.702;2022-09-09T05:43:27;18.70;99.90
11055;DHT22;5580;50.106;8.702;2022-09-09T05:46:17;18.70;99.90
11055;DHT22;5580;50.106;8.702;2022-09-09T05:48:45;18.70;99.90
11055;DHT22;5580;50.106;8.702;2022-09-09T05:51:20;18.70;99.90
11055;DHT22;5580;50.106;8.702;2022-09-09T05:53:47;18.70;99.90
11055;DHT22;5580;50.106;8.702;2022-09-09T05:58:43;18.70;99.90
11055;DHT22;5580;50.106;8.702;2022-09-09T06:01:19;18.60;99.90
11055;DHT22;5580;50.106;8.702;2022-09-09T06:03:46;18.60;99.90
11055;DHT22;5580;50.106;8.702;2022-09-09T06:06:14;18.60;99.90
11055;DHT22;5580;50.106;8.702;2022-09-09T06:08:42;18.60;99.90
11055;DHT22;5580;50.106;8.702;2022-09-09T06:11:17;18.60;99.90
11055;DHT22;5580;50.106;8.702;2022-09-09T06:13:43;18.60;99.90
11055;DHT22;5580;50.106;8.702;2022-09-09T06:16:10;18.60;99.90
11055;DHT22;5580;50.106;8.702;2022-09-09T06:18:37;18.60;99.90
11055;DHT22;5580;50.106;8.702;2022-09-09T06:21:05;18.60;99.90
11055;DHT22;5580;50.106;8.702;2022-09-09T06:23:35;18.60;99.90
11055;DHT22;5580;50.106;8.702;2022-09-09T06:28:40;18.70;99.90
11055;DHT22;5580;50.106;8.702;2022-09-09T06:31:09;18.70;99.90
11055;DHT22;5580;50.106;8.702;2022-09-09T06:33:40;18.80;99.90
11055;DHT22;5580;50.106;8.702;2022-09-09T06:36:20;18.80;99.90
11055;DHT22;5580;50.106;8.702;2022-09-09T06:38:46;18.80;99.90
11055;DHT22;5580;50.106;8.702;2022-09-09T06:41:14;18.80;99.90
11055;DHT22;5580;50.106;8.702;2022-09-09T06:43:41;18.80;99.90
11055;DHT22;5580;50.106;8.702;2022-09-09T06:46:14;18.80;99.90
11055;DHT22;5580;50.106;8.702;2022-09-09T06:48:40;18.90;99.90
11055;DHT22;5580;50.106;8.702;2022-09-09T06:51:12;18.90;99.90
11055;DHT22;5580;50.106;8.702;2022-09-09T06:53:40;18.90;99.90
11055;DHT22;5580;50.106;8.702;2022-09-09T06:56:19;19.00;99.90
11055;DHT22;5580;50.106;8.702;2022-09-09T06:58:47;19.10;99.90
11055;DHT22;5580;50.106;8.702;2022-09-09T07:01:27;19.00;99.90
11055;DHT22;5580;50.106;8.702;2022-09-09T07:03:55;19.10;99.90
11055;DHT22;5580;50.106;8.702;2022-09-09T07:06:26;19.00;99.90
11055;DHT22;5580;50.106;8.702;2022-09-09T07:08:53;19.10;99.90
11055;DHT22;5580;50.106;8.702;2022-09-09T07:11:21;19.10;99.90
11055;DHT22;5580;50.106;8.702;2022-09-09T07:13:48;19.20;99.90
11055;DHT22;5580;50.106;8.702;2022-09-09T07:16:16;19.20;99.90
11055;DHT22;5580;50.106;8.702;2022-09-09T07:18:42;19.20;99.90
11055;DHT22;5580;50.106;8.702;2022-09-09T07:21:11;19.20;99.90
11055;DHT22;5580;50.106;8.702;2022-09-09T07:23:37;19.20;99.90
11055;DHT22;5580;50.106;8.702;2022-09-09T07:26:08;19.20;99.90
11055;DHT22;5580;50.106;8.702;2022-09-09T07:28:34;19.20;99.90
11055;DHT22;5580;50.106;8.702;2022-09-09T07:31:01;19.20;99.90
11055;DHT22;5580;50.106;8.702;2022-09-09T07:33:32;19.20;99.90
11055;DHT22;5580;50.106;8.702;2022-09-09T07:36:07;19.20;99.90
11055;DHT22;5580;50.106;8.702;2022-09-09T07:38:45;19.20;99.90
11055;DHT22;5580;50.106;8.702;2022-09-09T07:41:16;19.20;99.90
11055;DHT22;5580;50.106;8.702;2022-09-09T07:43:44;19.10;99.90
11055;DHT22;5580;50.106;8.702;2022-09-09T07:46:11;19.10;99.90
11055;DHT22;5580;50.106;8.702;2022-09-09T07:48:38;19.20;99.90
11055;DHT22;5580;50.106;8.702;2022-09-09T07:53:34;19.20;99.90
11055;DHT22;5580;50.106;8.702;2022-09-09T07:56:11;19.20;99.90
11055;DHT22;5580;50.106;8.702;2022-09-09T07:58:38;19.20;99.90
11055;DHT22;5580;50.106;8.702;2022-09-09T08:01:09;19.20;99.90
11055;DHT22;5580;50.106;8.702;2022-09-09T08:03:35;19.20;99.90
11055;DHT22;5580;50.106;8.702;2022-09-09T08:06:03;19.20;99.90
11055;DHT22;5580;50.106;8.702;2022-09-09T08:08:29;19.20;99.90
11055;DHT22;5580;50.106;8.702;2022-09-09T08:11:05;19.20;99.90
11055;DHT22;5580;50.106;8.702;2022-09-09T08:13:34;19.20;99.90
11055;DHT22;5580;50.106;8.702;2022-09-09T08:16:15;19.20;99.90
11055;DHT22;5580;50.106;8.702;2022-09-09T08:18:41;19.30;99.90
11055;DHT22;5580;50.106;8.702;2022-09-09T08:23:40;19.30;99.90
11055;DHT22;5580;50.106;8.702;2022-09-09T08:26:15;19.30;99.90
11055;DHT22;5580;50.106;8.702;2022-09-09T08:28:41;19.40;99.90
11055;DHT22;5580;50.106;8.702;2022-09-09T08:31:28;19.40;99.90
11055;DHT22;5580;50.106;8.702;2022-09-09T08:33:55;19.50;99.90
11055;DHT22;5580;50.106;8.702;2022-09-09T08:36:26;19.40;99.90
11055;DHT22;5580;50.106;8.702;2022-09-09T08:38:54;19.50;99.90
11055;DHT22;5580;50.106;8.702;2022-09-09T08:49:39;19.70;99.90
11055;DHT22;5580;50.106;8.702;2022-09-09T08:52:13;19.60;99.90
11055;DHT22;5580;50.106;8.702;2022-09-09T08:54:41;19.70;99.90
11055;DHT22;5580;50.106;8.702;2022-09-09T08:57:12;19.70;99.90
11055;DHT22;5580;50.106;8.702;2022-09-09T08:59:39;19.70;99.90
11055;DHT22;5580;50.106;8.702;2022-09-09T09:02:15;19.70;99.90
11055;DHT22;5580;50.106;8.702;2022-09-09T09:12:18;19.70;99.90
11055;DHT22;5580;50.106;8.702;2022-09-09T09:14:46;19.70;99.90
11055;DHT22;5580;50.106;8.702;2022-09-09T09:17:17;19.80;99.90
11055;DHT22;5580;50.106;8.702;2022-09-09T09:19:44;19.80;99.90
11055;DHT22;5580;50.106;8.702;2022-09-09T09:22:22;19.80;99.90
11055;DHT22;5580;50.106;8.702;2022-09-09T09:27:38;19.80;99.90
11055;DHT22;5580;50.106;8.702;2022-09-09T09:32:53;19.80;99.90
11055;DHT22;5580;50.106;8.702;2022-09-09T09:35:19;19.80;99.90
11055;DHT22;5580;50.106;8.702;2022-09-09T09:37:45;19.90;99.90
11055;DHT22;5580;50.106;8.702;2022-09-09T09:40:20;19.90;99.90
11055;DHT22;5580;50.106;8.702;2022-09-09T09:42:57;19.90;99.90
11055;DHT22;5580;50.106;8.702;2022-09-09T09:48:03;19.90;99.90
11055;DHT22;5580;50.106;8.702;2022-09-09T09:50:30;19.90;99.90
11055;DHT22;5580;50.106;8.702;2022-09-09T09:53:04;19.80;99.90
11055;DHT22;5580;50.106;8.702;2022-09-09T09:55:35;19.80;99.90
11055;DHT22;5580;50.106;8.702;2022-09-09T09:58:06;19.70;99.90
11055;DHT22;5580;50.106;8.702;2022-09-09T10:00:32;19.70;99.90
11055;DHT22;5580;50.106;8.702;2022-09-09T10:03:01;19.70;99.90
11055;DHT22;5580;50.106;8.702;2022-09-09T10:05:30;19.60;99.90
11055;DHT22;5580;50.106;8.702;2022-09-09T10:13:39;19.70;99.90
11055;DHT22;5580;50.106;8.702;2022-09-09T10:18:56;19.60;99.90
11055;DHT22;5580;50.106;8.702;2022-09-09T10:29:18;19.80;99.90
11055;DHT22;5580;50.106;8.702;2022-09-09T10:32:23;19.80;99.90
11055;DHT22;5580;50.106;8.702;2022-09-09T10:37:41;19.90;99.90
11055;DHT22;5580;50.106;8.702;2022-09-09T10:40:33;20.00;99.90
11055;DHT22;5580;50.106;8.702;2022-09-09T10:46:05;20.10;99.90
11055;DHT22;5580;50.106;8.702;2022-09-09T10:56:25;20.20;99.90
11055;DHT22;5580;50.106;8.702;2022-09-09T10:59:19;20.30;99.90
11055;DHT22;5580;50.106;8.702;2022-09-09T11:02:11;20.30;99.90
11055;DHT22;5580;50.106;8.702;2022-09-09T11:04:48;20.30;99.90
11055;DHT22;5580;50.106;8.702;2022-09-09T11:07:22;20.20;99.90
11055;DHT22;5580;50.106;8.702;2022-09-09T11:09:55;20.20;99.90
11055;DHT22;5580;50.106;8.702;2022-09-09T11:12:27;20.20;99.90
11055;DHT22;5580;50.106;8.702;2022-09-09T11:15:04;20.20;99.90
11055;DHT22;5580;50.106;8.702;2022-09-09T11:17:46;20.20;99.90
11055;DHT22;5580;50.106;8.702;2022-09-09T11:20:14;20.30;99.90
11055;DHT22;5580;50.106;8.702;2022-09-09T11:22:57;20.20;99.90
11055;DHT22;5580;50.106;8.702;2022-09-09T11:25:35;20.30;99.90
11055;DHT22;5580;50.106;8.702;2022-09-09T11:42:23;20.40;99.90
11055;DHT22;5580;50.106;8.702;2022-09-09T11:44:49;20.50;99.90
11055;DHT22;5580;50.106;8.702;2022-09-09T11:47:28;20.50;99.90
11055;DHT22;5580;50.106;8.702;2022-09-09T11:52:45;20.60;99.90
11055;DHT22;5580;50.106;8.702;2022-09-09T11:55:26;20.60;99.90
11055;DHT22;5580;50.106;8.702;2022-09-09T11:58:02;20.70;99.90
11055;DHT22;5580;50.106;8.702;2022-09-09T12:00:48;20.70;99.90
11055;DHT22;5580;50.106;8.702;2022-09-09T12:06:08;20.70;99.90
11055;DHT22;5580;50.106;8.702;2022-09-09T12:08:35;20.70;99.90
11055;DHT22;5580;50.106;8.702;2022-09-09T12:11:02;20.70;99.90
11055;DHT22;5580;50.106;8.702;2022-09-09T12:13:30;20.70;99.90
11055;DHT22;5580;50.106;8.702;2022-09-09T12:15:58;20.70;99.90
11055;DHT22;5580;50.106;8.702;2022-09-09T12:18:38;20.70;99.90
11055;DHT22;5580;50.106;8.702;2022-09-09T12:29:29;20.70;99.90
11055;DHT22;5580;50.106;8.702;2022-09-09T12:36:58;20.80;99.90
11055;DHT22;5580;50.106;8.702;2022-09-09T12:39:32;20.80;99.90
11055;DHT22;5580;50.106;8.702;2022-09-09T12:41:59;20.80;99.90
11055;DHT22;5580;50.106;8.702;2022-09-09T12:44:26;20.80;99.90
11055;DHT22;5580;50.106;8.702;2022-09-09T12:46:57;20.80;99.90
11055;DHT22;5580;50.106;8.702;2022-09-09T12:49:44;20.90;99.90
11055;DHT22;5580;50.106;8.702;2022-09-09T12:52:20;20.90;99.90
11055;DHT22;5580;50.106;8.702;2022-09-09T12:54:48;20.80;99.90
11055;DHT22;5580;50.106;8.702;2022-09-09T12:57:16;20.60;99.90
11055;DHT22;5580;50.106;8.702;2022-09-09T12:59:43;20.50;99.90
11055;DHT22;5580;50.106;8.702;2022-09-09T13:02:21;20.30;99.90
11055;DHT22;5580;50.106;8.702;2022-09-09T13:04:48;20.20;99.90
11055;DHT22;5580;50.106;8.702;2022-09-09T13:07:16;20.10;99.90
11055;DHT22;5580;50.106;8.702;2022-09-09T13:09:43;20.10;99.90
11055;DHT22;5580;50.106;8.702;2022-09-09T13:12:18;20.00;99.90
11055;DHT22;5580;50.106;8.702;2022-09-09T13:14:47;20.00;99.90
11055;DHT22;5580;50.106;8.702;2022-09-09T13:17:27;20.00;99.90
11055;DHT22;5580;50.106;8.702;2022-09-09T13:19:55;19.90;99.90
11055;DHT22;5580;50.106;8.702;2022-09-09T13:22:37;19.90;99.90
11055;DHT22;5580;50.106;8.702;2022-09-09T13:25:25;19.90;99.90
11055;DHT22;5580;50.106;8.702;2022-09-09T13:28:02;19.90;99.90
11055;DHT22;5580;50.106;8.702;2022-09-09T13:30:36;19.90;99.90
11055;DHT22;5580;50.106;8.702;2022-09-09T13:33:20;19.90;99.90
11055;DHT22;5580;50.106;8.702;2022-09-09T13:35:49;19.90;99.90
11055;DHT22;5580;50.106;8.702;2022-09-09T13:38:16;19.70;99.90
11055;DHT22;5580;50.106;8.702;2022-09-09T13:40:56;19.70;99.90
11055;DHT22;5580;50.106;8.702;2022-09-09T13:43:24;19.80;99.90
11055;DHT22;5580;50.106;8.702;2022-09-09T13:46:02;19.80;99.90
11055;DHT22;5580;50.106;8.702;2022-09-09T13:48:28;19.80;99.90
11055;DHT22;5580;50.106;8.702;2022-09-09T13:51:03;19.80;99.90
11055;DHT22;5580;50.106;8.702;2022-09-09T13:53:30;19.90;99.90
11055;DHT22;5580;50.106;8.702;2022-09-09T13:55:57;19.90;99.90
11055;DHT22;5580;50.106;8.702;2022-09-09T13:58:23;19.90;99.90
11055;DHT22;5580;50.106;8.702;2022-09-09T14:00:51;20.00;99.90
11055;DHT22;5580;50.106;8.702;2022-09-09T14:03:17;20.00;99.90
11055;DHT22;5580;50.106;8.702;2022-09-09T14:05:44;20.10;99.90
11055;DHT22;5580;50.106;8.702;2022-09-09T14:08:16;20.10;99.90
11055;DHT22;5580;50.106;8.702;2022-09-09T14:10:45;20.10;99.90
11055;DHT22;5580;50.106;8.702;2022-09-09T14:13:11;20.10;99.90
11055;DHT22;5580;50.106;8.702;2022-09-09T14:15:37;20.10;99.90
11055;DHT22;5580;50.106;8.702;2022-09-09T14:18:03;20.10;99.90
11055;DHT22;5580;50.106;8.702;2022-09-09T14:20:29;20.20;99.90
11055;DHT22;5580;50.106;8.702;2022-09-09T14:22:54;20.20;99.90
11055;DHT22;5580;50.106;8.702;2022-09-09T14:25:22;20.20;99.90
11055;DHT22;5580;50.106;8.702;2022-09-09T14:27:48;20.20;99.90
11055;DHT22;5580;50.106;8.702;2022-09-09T14:30:14;20.20;99.90
11055;DHT22;5580;50.106;8.702;2022-09-09T14:32:40;20.20;99.90
11055;DHT22;5580;50.106;8.702;2022-09-09T14:35:06;20.20;99.90
11055;DHT22;5580;50.106;8.702;2022-09-09T14:37:32;20.20;99.90
11055;DHT22;5580;50.106;8.702;2022-09-09T14:39:58;20.20;99.90
11055;DHT22;5580;50.106;8.702;2022-09-09T14:42:23;20.20;99.90
11055;DHT22;5580;50.106;8.702;2022-09-09T14:44:49;20.20;99.90
11055;DHT22;5580;50.106;8.702;2022-09-09T14:47:14;20.20;99.90
11055;DHT22;5580;50.106;8.702;2022-09-09T14:49:40;20.20;99.90
11055;DHT22;5580;50.106;8.702;2022-09-09T14:52:06;20.20;99.90
11055;DHT22;5580;50.106;8.702;2022-09-09T14:54:32;20.20;99.90
11055;DHT22;5580;50.106;8.702;2022-09-09T14:56:58;20.20;99.90
11055;DHT22;5580;50.106;8.702;2022-09-09T14:59:24;20.20;99.90
11055;DHT22;5580;50.106;8.702;2022-09-09T15:01:50;20.30;99.90
11055;DHT22;5580;50.106;8.702;2022-09-09T15:04:15;20.30;99.90
11055;DHT22;5580;50.106;8.702;2022-09-09T15:06:42;20.30;99.90
11055;DHT22;5580;50.106;8.702;2022-09-09T15:09:09;20.30;99.90
11055;DHT22;5580;50.106;8.702;2022-09-09T15:11:36;20.40;99.90
11055;DHT22;5580;50.106;8.702;2022-09-09T15:14:04;20.40;99.90
11055;DHT22;5580;50.106;8.702;2022-09-09T15:16:30;20.30;99.90
11055;DHT22;5580;50.106;8.702;2022-09-09T15:18:58;20.30;99.90
11055;DHT22;5580;50.106;8.702;2022-09-09T15:21:25;20.30;99.90
11055;DHT22;5580;50.106;8.702;2022-09-09T15:23:52;20.30;99.90
11055;DHT22;5580;50.106;8.702;2022-09-09T15:26:21;20.30;99.90
11055;DHT22;5580;50.106;8.702;2022-09-09T15:28:47;20.30;99.90
11055;DHT22;5580;50.106;8.702;2022-09-09T15:36:19;20.40;99.90
11055;DHT22;5580;50.106;8.702;2022-09-09T15:38:45;20.40;99.90
11055;DHT22;5580;50.106;8.702;2022-09-09T15:41:12;20.40;99.90
11055;DHT22;5580;50.106;8.702;2022-09-09T15:43:38;20.40;99.90
11055;DHT22;5580;50.106;8.702;2022-09-09T15:48:42;20.40;99.90
11055;DHT22;5580;50.106;8.702;2022-09-09T15:51:09;20.50;99.90
11055;DHT22;5580;50.106;8.702;2022-09-09T15:53:36;20.50;99.90
11055;DHT22;5580;50.106;8.702;2022-09-09T15:56:07;20.50;99.90
11055;DHT22;5580;50.106;8.702;2022-09-09T15:58:34;20.50;99.90
11055;DHT22;5580;50.106;8.702;2022-09-09T16:01:07;20.50;99.90
11055;DHT22;5580;50.106;8.702;2022-09-09T16:03:37;20.50;99.90
11055;DHT22;5580;50.106;8.702;2022-09-09T16:06:04;20.50;99.90
11055;DHT22;5580;50.106;8.702;2022-09-09T16:08:34;20.50;99.90
11055;DHT22;5580;50.106;8.702;2022-09-09T16:11:21;20.50;99.90
11055;DHT22;5580;50.106;8.702;2022-09-09T16:13:48;20.50;99.90
11055;DHT22;5580;50.106;8.702;2022-09-09T16:16:16;20.50;99.90
11055;DHT22;5580;50.106;8.702;2022-09-09T16:18:56;20.40;99.90
11055;DHT22;5580;50.106;8.702;2022-09-09T16:21:26;20.50;99.90
11055;DHT22;5580;50.106;8.702;2022-09-09T16:23:55;20.50;99.90
11055;DHT22;5580;50.106;8.702;2022-09-09T16:26:22;20.40;99.90
11055;DHT22;5580;50.106;8.702;2022-09-09T16:28:48;20.40;99.90
11055;DHT22;5580;50.106;8.702;2022-09-09T16:31:21;20.40;99.90
11055;DHT22;5580;50.106;8.702;2022-09-09T16:33:47;20.40;99.90
11055;DHT22;5580;50.106;8.702;2022-09-09T16:36:16;20.40;99.90
11055;DHT22;5580;50.106;8.702;2022-09-09T16:38:42;20.40;99.90
11055;DHT22;5580;50.106;8.702;2022-09-09T16:41:09;20.40;99.90
11055;DHT22;5580;50.106;8.702;2022-09-09T16:43:36;20.40;99.90
11055;DHT22;5580;50.106;8.702;2022-09-09T16:46:16;20.40;99.90
11055;DHT22;5580;50.106;8.702;2022-09-09T16:48:43;20.40;99.90
11055;DHT22;5580;50.106;8.702;2022-09-09T16:51:16;20.40;99.90
11055;DHT22;5580;50.106;8.702;2022-09-09T16:53:42;20.30;99.90
11055;DHT22;5580;50.106;8.702;2022-09-09T16:56:11;20.30;99.90
11055;DHT22;5580;50.106;8.702;2022-09-09T16:58:38;20.30;99.90
11055;DHT22;5580;50.106;8.702;2022-09-09T17:01:04;20.30;99.90
11055;DHT22;5580;50.106;8.702;2022-09-09T17:03:30;20.30;99.90
11055;DHT22;5580;50.106;8.702;2022-09-09T17:05:57;20.30;99.90
11055;DHT22;5580;50.106;8.702;2022-09-09T17:08:23;20.30;99.90
11055;DHT22;5580;50.106;8.702;2022-09-09T17:10:49;20.30;99.90
11055;DHT22;5580;50.106;8.702;2022-09-09T17:13:15;20.30;99.90
11055;DHT22;5580;50.106;8.702;2022-09-09T17:15:43;20.30;99.90
11055;DHT22;5580;50.106;8.702;2022-09-09T17:18:10;20.30;99.90
11055;DHT22;5580;50.106;8.702;2022-09-09T17:20:40;20.30;99.90
11055;DHT22;5580;50.106;8.702;2022-09-09T17:23:07;20.30;99.90
11055;DHT22;5580;50.106;8.702;2022-09-09T17:25:33;20.20;99.90
11055;DHT22;5580;50.106;8.702;2022-09-09T17:27:59;20.20;99.90
11055;DHT22;5580;50.106;8.702;2022-09-09T17:30:25;20.20;99.90
11055;DHT22;5580;50.106;8.702;2022-09-09T17:32:51;20.20;99.90
11055;DHT22;5580;50.106;8.702;2022-09-09T17:35:17;20.20;99.90
11055;DHT22;5580;50.106;8.702;2022-09-09T17:37:43;20.20;99.90
11055;DHT22;5580;50.106;8.702;2022-09-09T17:40:09;20.20;99.90
11055;DHT22;5580;50.106;8.702;2022-09-09T17:42:35;20.20;99.90
11055;DHT22;5580;50.106;8.702;2022-09-09T17:45:01;20.20;99.90
11055;DHT22;5580;50.106;8.702;2022-09-09T17:47:27;20.20;99.90
11055;DHT22;5580;50.106;8.702;2022-09-09T17:49:53;20.20;99.90
11055;DHT22;5580;50.106;8.702;2022-09-09T17:52:19;20.10;99.90
11055;DHT22;5580;50.106;8.702;2022-09-09T17:54:44;20.10;99.90
11055;DHT22;5580;50.106;8.702;2022-09-09T17:57:10;20.10;99.90
11055;DHT22;5580;50.106;8.702;2022-09-09T17:59:36;20.00;99.90
11055;DHT22;5580;50.106;8.702;2022-09-09T18:02:02;20.00;99.90
11055;DHT22;5580;50.106;8.702;2022-09-09T18:04:30;20.00;99.90
11055;DHT22;5580;50.106;8.702;2022-09-09T18:06:56;20.00;99.90
11055;DHT22;5580;50.106;8.702;2022-09-09T18:09:25;20.00;99.90
11055;DHT22;5580;50.106;8.702;2022-09-09T18:11:53;20.00;99.90
11055;DHT22;5580;50.106;8.702;2022-09-09T18:14:21;19.90;99.90
11055;DHT22;5580;50.106;8.702;2022-09-09T18:16:48;19.90;99.90
11055;DHT22;5580;50.106;8.702;2022-09-09T18:19:16;19.90;99.90
11055;DHT22;5580;50.106;8.702;2022-09-09T18:21:43;19.90;99.90
11055;DHT22;5580;50.106;8.702;2022-09-09T18:24:10;19.90;99.90
11055;DHT22;5580;50.106;8.702;2022-09-09T18:26:37;19.90;99.90
11055;DHT22;5580;50.106;8.702;2022-09-09T18:29:06;19.80;99.90
11055;DHT22;5580;50.106;8.702;2022-09-09T18:31:33;19.80;99.90
11055;DHT22;5580;50.106;8.702;2022-09-09T18:34:01;19.70;99.90
11055;DHT22;5580;50.106;8.702;2022-09-09T18:36:33;19.70;99.90
11055;DHT22;5580;50.106;8.702;2022-09-09T18:39:02;19.70;99.90
11055;DHT22;5580;50.106;8.702;2022-09-09T18:41:33;19.60;99.90